Bakersfield (BFL/KBFL)

Map

Destinations

Information

Location
Bakersfield, CA
Local Time
20:35 / 8:35 pm
GMT Time
03:35 / 3:35 am
Gates
2
No FAA reported delays
METAR KBFL 260254Z 32014KT 10SM CLR 21/09 A2974 RMK AO2 SLP065 T02060094 53008
TAF KBFL 252320Z 2600/2624 32012G18KT P6SM SKC FM260600 34006KT P6SM SKC